Time;durP1;ratioP1;P1;durP2;ratioP2;P2;SDS_P1;SDS_P2;PMS_P1;PMS_P2;Temp;Humidity;BMP_temperature;BMP_pressure;BME280_temperature;BME280_humidity;BME280_pressure;Samples;Min_cycle;Max_cycle;Signal;HPM_P1;HPM_P2
2022/01/04 00:00:34;;;;;;;9.77;3.90;;;;;;;16.09;59.29;97027.72;5073508;28;20108;-33
2022/01/04 00:03:00;;;;;;;8.52;3.50;;;;;;;16.15;59.34;97039.63;5073788;28;20028;-34
2022/01/04 00:05:25;;;;;;;7.32;3.53;;;;;;;16.11;59.20;97036.25;5073544;28;20020;-33
2022/01/04 00:07:51;;;;;;;9.30;4.53;;;;;;;16.08;59.24;97034.41;5073478;28;20035;-33
2022/01/04 00:10:22;;;;;;;6.97;3.45;;;;;;;16.10;59.07;97028.50;5072038;28;20124;-33
2022/01/04 00:15:33;;;;;;;6.65;3.40;;;;;;;16.17;59.07;97025.50;5073725;28;20052;-34
2022/01/04 00:17:58;;;;;;;8.52;3.78;;;;;;;16.05;59.51;97024.38;5073335;28;20475;-33
2022/01/04 00:20:24;;;;;;;7.57;3.30;;;;;;;16.15;59.13;97027.91;5073314;28;20458;-33
2022/01/04 00:22:49;;;;;;;6.90;3.20;;;;;;;16.09;59.26;97025.00;5072061;28;20026;-34
2022/01/04 00:25:16;;;;;;;7.60;3.80;;;;;;;16.12;58.96;97012.41;5073243;28;20098;-35
2022/01/04 00:27:42;;;;;;;7.07;3.22;;;;;;;16.11;59.20;97006.16;5073234;28;20020;-33
2022/01/04 00:30:08;;;;;;;6.65;3.42;;;;;;;16.04;59.42;97011.91;5073443;28;20020;-33
2022/01/04 00:32:34;;;;;;;7.25;3.58;;;;;;;16.04;59.43;97008.41;5073015;28;20082;-35
2022/01/04 00:34:59;;;;;;;6.95;3.40;;;;;;;16.10;59.18;97012.84;5073108;28;20429;-33
2022/01/04 00:37:25;;;;;;;7.60;3.85;;;;;;;16.05;59.41;97001.72;5073324;28;20027;-34
2022/01/04 00:39:50;;;;;;;6.88;3.22;;;;;;;16.10;59.14;97001.13;5073183;28;20024;-33
2022/01/04 00:42:16;;;;;;;5.15;3.28;;;;;;;16.06;59.38;97003.25;5073281;28;20443;-34
2022/01/04 00:44:41;;;;;;;6.55;3.33;;;;;;;16.11;59.14;96994.44;5073050;28;20033;-34
2022/01/04 00:47:09;;;;;;;5.03;3.28;;;;;;;16.02;59.30;96997.16;5073142;28;20024;-33
2022/01/04 00:49:35;;;;;;;5.15;3.42;;;;;;;16.11;59.12;96997.19;5073066;28;20036;-33
2022/01/04 00:52:01;;;;;;;5.45;3.13;;;;;;;16.04;59.37;96994.72;5072895;28;20040;-34
2022/01/04 00:54:27;;;;;;;7.18;3.50;;;;;;;16.07;59.12;96980.91;5072995;28;20082;-33
2022/01/04 00:56:52;;;;;;;6.10;3.20;;;;;;;16.09;59.14;96992.16;5072862;28;20039;-34
2022/01/04 00:59:18;;;;;;;5.70;3.30;;;;;;;16.13;59.09;96998.25;5073205;28;20494;-33
2022/01/04 01:01:44;;;;;;;6.28;3.35;;;;;;;16.11;58.92;96987.00;5072785;28;20038;-31
2022/01/04 01:04:10;;;;;;;5.32;3.25;;;;;;;16.04;59.39;96995.50;5073148;28;20024;-32
2022/01/04 01:06:36;;;;;;;6.68;3.40;;;;;;;16.05;59.22;96996.25;5072725;28;20024;-32
2022/01/04 01:09:03;;;;;;;5.45;3.20;;;;;;;15.97;59.45;96995.75;5071438;28;20032;-32
2022/01/04 01:11:28;;;;;;;5.68;3.22;;;;;;;15.98;59.36;96991.03;5071535;28;20070;-31
2022/01/04 01:13:54;;;;;;;5.45;2.95;;;;;;;16.09;59.23;96992.16;5072788;28;20107;-31
2022/01/04 01:16:19;;;;;;;6.53;3.72;;;;;;;16.00;59.28;96994.84;5072734;28;20476;-31
2022/01/04 01:18:46;;;;;;;6.30;3.40;;;;;;;16.06;59.17;96998.56;5072879;28;20105;-31
2022/01/04 01:21:11;;;;;;;5.82;3.60;;;;;;;15.99;59.47;96996.06;5073060;28;20391;-31
2022/01/04 01:23:38;;;;;;;5.03;3.47;;;;;;;15.99;59.35;96996.06;5072656;28;20031;-32
2022/01/04 01:26:06;;;;;;;6.60;3.33;;;;;;;16.04;59.17;97000.97;5072731;28;20030;-32
2022/01/04 01:28:33;;;;;;;4.25;3.10;;;;;;;16.01;59.18;96996.38;5072832;28;20425;-31
2022/01/04 01:30:59;;;;;;;6.10;3.40;;;;;;;16.06;59.10;96993.06;5072702;28;20021;-31
2022/01/04 01:33:27;;;;;;;4.75;3.15;;;;;;;15.98;59.36;96989.06;5072715;28;20024;-32
2022/01/04 01:35:53;;;;;;;5.28;3.42;;;;;;;16.00;59.23;96988.63;5072772;28;20501;-32
2022/01/04 01:38:19;;;;;;;5.35;3.50;;;;;;;16.10;58.85;96984.72;5072663;28;20024;-32
2022/01/04 01:40:46;;;;;;;5.43;3.45;;;;;;;16.06;58.97;96995.81;5072644;28;20016;-31
2022/01/04 01:43:12;;;;;;;9.68;4.50;;;;;;;15.97;59.22;96990.28;5072447;28;20016;-31
2022/01/04 01:45:38;;;;;;;4.93;2.97;;;;;;;15.86;59.64;96989.16;5074817;28;20074;-31
2022/01/04 01:48:05;;;;;;;6.03;3.45;;;;;;;15.88;59.68;96989.47;5076173;28;20107;-32
2022/01/04 01:50:30;;;;;;;5.30;3.30;;;;;;;15.98;59.37;96974.63;5076261;28;20033;-31
2022/01/04 01:52:56;;;;;;;5.55;3.22;;;;;;;15.96;59.30;96983.28;5075645;28;20041;-32
2022/01/04 01:55:24;;;;;;;6.10;3.38;;;;;;;16.02;59.05;96986.97;5076479;28;20028;-33
2022/01/04 01:57:53;;;;;;;3.15;2.67;;;;;;;16.04;58.94;96984.56;5074831;28;20473;-31
2022/01/04 02:00:25;;;;;;;3.75;3.15;;;;;;;16.02;59.05;96978.00;5075957;28;20032;-32
2022/01/04 02:02:51;;;;;;;4.45;2.97;;;;;;;16.00;59.13;96978.44;5076197;28;20492;-31
2022/01/04 02:05:17;;;;;;;5.43;3.42;;;;;;;15.99;59.15;96976.91;5075834;28;20036;-31
2022/01/04 02:07:43;;;;;;;5.57;3.30;;;;;;;16.01;59.10;96974.50;5076189;28;20017;-31
2022/01/04 02:10:10;;;;;;;5.28;3.20;;;;;;;16.03;59.06;96974.06;5075918;28;20032;-32
2022/01/04 02:12:46;;;;;;;4.60;3.10;;;;;;;16.04;58.90;96970.88;5075896;28;20029;-31
2022/01/04 02:15:15;;;;;;;4.80;3.22;;;;;;;15.98;59.16;96974.63;5075780;28;20485;-31
2022/01/04 02:17:40;;;;;;;4.90;3.30;;;;;;;15.96;59.32;96969.59;5075686;28;20032;-31
2022/01/04 02:20:07;;;;;;;3.97;3.10;;;;;;;15.94;59.32;96960.34;5075758;28;20086;-32
2022/01/04 02:22:33;;;;;;;5.18;3.70;;;;;;;15.95;59.38;96953.66;5075585;28;20032;-32
2022/01/04 02:24:59;;;;;;;4.50;3.00;;;;;;;15.88;59.38;96948.44;5075540;28;20020;-31
2022/01/04 02:27:26;;;;;;;6.63;3.45;;;;;;;15.90;59.49;96954.22;5075553;28;20031;-31
2022/01/04 02:29:52;;;;;;;4.45;3.10;;;;;;;15.87;59.47;96953.16;5075229;28;20033;-32
2022/01/04 02:32:17;;;;;;;4.57;3.40;;;;;;;15.92;59.17;96947.09;5074116;28;20424;-32
2022/01/04 02:34:48;;;;;;;5.15;3.67;;;;;;;15.97;59.16;96945.75;5075318;28;20451;-33
2022/01/04 02:37:21;;;;;;;5.85;3.40;;;;;;;15.92;59.10;96944.38;5075335;28;20387;-33
2022/01/04 02:39:47;;;;;;;4.38;3.22;;;;;;;15.88;59.30;96938.25;5075331;28;20057;-32
2022/01/04 02:42:13;;;;;;;3.60;2.85;;;;;;;15.93;59.30;96942.41;5075534;28;20072;-31
2022/01/04 02:44:38;;;;;;;6.75;3.30;;;;;;;15.94;59.15;96941.94;5075298;28;20048;-31
2022/01/04 02:47:04;;;;;;;5.25;3.58;;;;;;;15.88;59.44;96938.25;5075042;28;20025;-32
2022/01/04 02:49:30;;;;;;;4.15;3.25;;;;;;;15.90;59.43;96941.31;5074921;28;20024;-32
2022/01/04 02:51:55;;;;;;;4.55;3.67;;;;;;;15.87;59.54;96939.47;5075360;28;20044;-32
2022/01/04 02:54:21;;;;;;;4.78;3.05;;;;;;;15.90;59.24;96930.38;5074986;28;20029;-32
2022/01/04 02:56:47;;;;;;;7.47;3.83;;;;;;;15.93;59.28;96932.22;5074512;28;20021;-31
2022/01/04 02:59:13;;;;;;;3.83;3.08;;;;;;;15.92;59.27;96924.47;5075083;28;20024;-31
2022/01/04 03:01:38;;;;;;;5.53;3.10;;;;;;;15.94;59.12;96933.75;5074629;28;20028;-31
2022/01/04 03:04:04;;;;;;;3.90;3.15;;;;;;;15.90;59.27;96924.13;5074873;28;20021;-31
2022/01/04 03:06:29;;;;;;;4.90;2.92;;;;;;;15.92;59.13;96919.75;5074559;28;20485;-31
2022/01/04 03:08:55;;;;;;;5.72;3.80;;;;;;;15.87;59.40;96925.78;5074725;28;20056;-35
2022/01/04 03:11:21;;;;;;;6.68;2.97;;;;;;;15.88;59.46;96915.63;5074443;28;20082;-31
2022/01/04 03:13:46;;;;;;;4.25;3.45;;;;;;;15.87;59.37;96919.56;5074582;28;20450;-31
2022/01/04 03:16:15;;;;;;;5.13;2.97;;;;;;;15.94;59.04;96913.84;5074446;28;20024;-31
2022/01/04 03:19:01;;;;;;;5.22;3.40;;;;;;;15.91;59.28;96912.75;5074804;28;20374;-31
2022/01/04 03:21:25;;;;;;;4.30;3.13;;;;;;;15.85;59.39;96917.28;5074292;28;20094;-32
2022/01/04 03:23:51;;;;;;;5.40;3.30;;;;;;;15.86;59.49;96913.31;5074232;28;20028;-32
2022/01/04 03:26:16;;;;;;;3.88;3.10;;;;;;;15.85;59.35;96906.34;5074496;28;20024;-32
2022/01/04 03:28:42;;;;;;;3.70;3.03;;;;;;;15.84;59.35;96904.81;5074177;28;20028;-31
2022/01/04 03:31:08;;;;;;;6.57;3.47;;;;;;;15.87;59.45;96914.84;5074187;28;20028;-32
2022/01/04 03:33:34;;;;;;;4.72;3.08;;;;;;;15.86;59.25;96899.66;5074279;28;20024;-31
2022/01/04 03:36:01;;;;;;;5.35;3.50;;;;;;;15.84;59.30;96915.75;5073987;28;20044;-31
2022/01/04 03:38:27;;;;;;;4.68;3.20;;;;;;;15.80;59.64;96910.44;5073995;28;20103;-32
2022/01/04 03:40:52;;;;;;;3.97;3.00;;;;;;;15.86;59.37;96913.31;5073968;28;20103;-31
2022/01/04 03:43:17;;;;;;;4.70;3.22;;;;;;;15.90;59.11;96905.75;5073885;28;20099;-31
2022/01/04 03:45:43;;;;;;;4.32;3.15;;;;;;;15.91;59.12;96906.53;5072739;28;20025;-32
2022/01/04 03:48:08;;;;;;;4.80;3.35;;;;;;;15.91;59.34;96903.78;5073709;28;20024;-32
2022/01/04 03:50:34;;;;;;;3.65;2.85;;;;;;;15.89;59.34;96904.22;5073921;28;20025;-31
2022/01/04 03:52:59;;;;;;;4.25;3.15;;;;;;;15.88;59.33;96894.50;5073810;28;20048;-32
2022/01/04 03:55:25;;;;;;;5.10;3.33;;;;;;;15.86;59.31;96891.44;5074002;28;20386;-31
2022/01/04 03:57:50;;;;;;;4.40;3.00;;;;;;;15.87;59.38;96892.22;5073749;28;20035;-31
2022/01/04 04:00:16;;;;;;;5.15;3.10;;;;;;;15.90;59.27;96905.75;5073633;28;20100;-32
2022/01/04 04:02:41;;;;;;;4.38;3.10;;;;;;;15.86;59.32;96890.69;5072245;28;20022;-31
2022/01/04 04:05:07;;;;;;;4.28;3.20;;;;;;;15.84;59.45;96890.38;5073620;28;20023;-32
2022/01/04 04:07:32;;;;;;;4.32;3.55;;;;;;;15.84;59.47;96888.41;5073012;28;20530;-31
2022/01/04 04:09:58;;;;;;;4.40;3.10;;;;;;;15.93;59.34;96895.91;5073403;28;20024;-31
2022/01/04 04:12:23;;;;;;;5.38;3.40;;;;;;;15.85;59.58;96900.88;5073470;28;20020;-31
2022/01/04 04:14:49;;;;;;;4.65;3.65;;;;;;;15.82;59.60;96899.03;5073402;28;20031;-31
2022/01/04 04:17:15;;;;;;;4.53;3.15;;;;;;;15.72;59.91;96898.22;5073450;28;20383;-31
2022/01/04 04:19:40;;;;;;;5.07;3.10;;;;;;;15.73;59.91;96899.75;5073419;28;20017;-31
2022/01/04 04:22:05;;;;;;;3.88;3.13;;;;;;;15.77;59.90;96896.88;5073468;28;20044;-32
2022/01/04 04:24:31;;;;;;;4.45;3.15;;;;;;;15.80;59.70;96896.00;5073619;28;20035;-31
2022/01/04 04:26:56;;;;;;;4.15;2.92;;;;;;;15.79;59.77;96887.03;5073251;28;20459;-31
2022/01/04 04:29:22;;;;;;;4.38;3.65;;;;;;;15.80;59.79;96887.78;5073266;28;20029;-31
2022/01/04 04:31:47;;;;;;;6.22;3.60;;;;;;;15.77;59.81;96883.97;5073195;28;20540;-31
2022/01/04 04:34:13;;;;;;;4.00;3.03;;;;;;;15.78;59.81;96901.16;5073189;28;20466;-31
2022/01/04 04:36:38;;;;;;;5.60;3.40;;;;;;;15.78;59.81;96895.69;5073174;28;20463;-31
2022/01/04 04:39:04;;;;;;;4.97;2.75;;;;;;;15.80;59.73;96894.03;5073320;28;20037;-31
2022/01/04 04:41:29;;;;;;;4.75;3.00;;;;;;;15.80;59.61;96899.50;5073439;28;20024;-32
2022/01/04 04:43:55;;;;;;;4.55;3.13;;;;;;;15.63;60.31;96902.88;5073508;28;20024;-31
2022/01/04 04:46:21;;;;;;;3.35;2.90;;;;;;;15.69;60.09;96893.66;5073037;28;20036;-31
2022/01/04 04:48:47;;;;;;;4.97;3.00;;;;;;;15.63;60.51;96889.97;5073215;28;20020;-31
2022/01/04 04:51:13;;;;;;;5.03;2.90;;;;;;;15.77;59.80;96892.19;5072705;28;20107;-31
2022/01/04 04:53:39;;;;;;;5.07;2.83;;;;;;;15.74;60.02;96889.56;5072824;28;20414;-31
2022/01/04 04:56:04;;;;;;;5.68;3.20;;;;;;;15.69;60.22;96887.44;5073120;28;20123;-32
2022/01/04 04:58:30;;;;;;;3.00;2.70;;;;;;;15.75;60.03;96893.84;5072829;28;20052;-32
2022/01/04 05:00:55;;;;;;;4.15;3.00;;;;;;;15.66;60.40;96885.59;5073169;28;20012;-32
2022/01/04 05:03:21;;;;;;;3.50;2.42;;;;;;;15.74;60.18;96889.56;5073112;28;20028;-31
2022/01/04 05:05:46;;;;;;;3.47;2.70;;;;;;;15.70;60.27;96883.50;5072895;28;20032;-32
2022/01/04 05:08:11;;;;;;;4.82;3.17;;;;;;;15.75;60.01;96880.91;5073023;28;20466;-31
2022/01/04 05:10:37;;;;;;;3.67;2.80;;;;;;;15.75;60.00;96889.13;5072873;28;20533;-32
2022/01/04 05:13:02;;;;;;;5.40;2.90;;;;;;;15.73;60.17;96898.97;5072756;28;20489;-31
2022/01/04 05:15:28;;;;;;;3.47;2.60;;;;;;;15.70;60.23;96888.97;5072929;28;20020;-32
2022/01/04 05:17:53;;;;;;;3.92;3.08;;;;;;;15.74;60.18;96884.09;5073057;28;20031;-32
2022/01/04 05:20:19;;;;;;;4.95;3.08;;;;;;;15.74;60.11;96878.63;5076377;28;20040;-31
2022/01/04 05:22:44;;;;;;;5.22;2.63;;;;;;;15.70;60.08;96891.69;5076766;28;20075;-31
2022/01/04 05:25:10;;;;;;;4.13;3.22;;;;;;;15.70;60.33;96883.50;5076540;28;20020;-31
2022/01/04 05:27:36;;;;;;;4.35;3.45;;;;;;;15.73;60.21;96888.81;5076666;28;20039;-31
2022/01/04 05:30:02;;;;;;;4.38;2.80;;;;;;;15.65;60.63;96882.09;5076680;28;20096;-31
2022/01/04 05:32:27;;;;;;;4.25;3.10;;;;;;;15.66;60.36;96874.66;5076796;28;20021;-31
2022/01/04 05:34:53;;;;;;;4.45;2.88;;;;;;;15.70;60.19;96872.56;5076453;28;20089;-32
2022/01/04 05:37:18;;;;;;;5.70;2.80;;;;;;;15.69;60.22;96871.78;5076708;28;20542;-31
2022/01/04 05:39:44;;;;;;;4.97;2.83;;;;;;;15.69;60.18;96868.28;5076389;28;20016;-32
2022/01/04 05:42:09;;;;;;;5.18;2.75;;;;;;;15.61;60.45;96880.69;5076320;28;20021;-32
2022/01/04 05:44:36;;;;;;;5.35;2.65;;;;;;;15.70;60.12;96873.28;5074974;28;20028;-31
2022/01/04 05:47:02;;;;;;;3.72;2.90;;;;;;;15.70;60.08;96875.28;5076471;28;20028;-31
2022/01/04 05:49:27;;;;;;;3.45;2.80;;;;;;;15.69;60.18;96882.72;5076168;28;20493;-31
2022/01/04 05:51:53;;;;;;;5.32;3.10;;;;;;;15.71;60.12;96880.28;5076105;28;20048;-31
2022/01/04 05:54:18;;;;;;;5.63;2.60;;;;;;;15.65;60.28;96876.63;5076152;28;20463;-32
2022/01/04 05:56:44;;;;;;;3.38;2.42;;;;;;;15.69;60.06;96876.50;5076160;28;20028;-32
2022/01/04 05:59:09;;;;;;;2.95;2.47;;;;;;;15.70;60.11;96878.03;5076263;28;20347;-31
2022/01/04 06:01:35;;;;;;;4.95;2.50;;;;;;;15.76;59.90;96885.19;5076004;28;20513;-32
2022/01/04 06:04:00;;;;;;;7.20;2.70;;;;;;;15.60;60.31;96882.66;5076085;28;20013;-32
2022/01/04 06:06:25;;;;;;;3.03;2.25;;;;;;;15.50;60.76;96872.09;5076109;28;20062;-31
2022/01/04 06:08:51;;;;;;;4.00;2.50;;;;;;;15.67;60.25;96868.75;5075978;28;20026;-31
2022/01/04 06:11:42;;;;;;;4.75;2.55;;;;;;;15.57;60.64;96863.69;5075548;28;20104;-31
2022/01/04 06:16:52;;;;;;;4.35;2.28;;;;;;;15.59;60.70;96863.97;5075890;28;20028;-31
2022/01/04 06:19:17;;;;;;;4.72;2.35;;;;;;;15.37;61.21;96862.03;5076026;28;20032;-31
2022/01/04 06:21:43;;;;;;;5.68;2.67;;;;;;;15.45;60.93;96860.53;5075624;28;20035;-31
2022/01/04 06:24:08;;;;;;;3.53;2.05;;;;;;;15.50;61.01;96869.38;5075618;28;20441;-32
2022/01/04 06:26:34;;;;;;;4.47;2.95;;;;;;;15.49;61.09;96867.84;5075335;28;20467;-31
2022/01/04 06:29:00;;;;;;;6.88;2.75;;;;;;;15.49;60.92;96865.13;5075515;28;20033;-31
2022/01/04 06:31:27;;;;;;;3.78;2.40;;;;;;;15.60;60.54;96857.31;5074817;28;20029;-32
2022/01/04 06:33:53;;;;;;;5.20;2.40;;;;;;;15.68;60.29;96861.31;5075432;28;20024;-31
2022/01/04 06:36:18;;;;;;;4.28;3.05;;;;;;;15.51;60.73;96859.97;5075365;28;20029;-32
2022/01/04 06:38:44;;;;;;;5.40;2.55;;;;;;;15.61;60.45;96856.09;5075359;28;20032;-32
2022/01/04 06:41:09;;;;;;;4.55;2.45;;;;;;;15.64;60.21;96852.47;5075689;28;20028;-32
2022/01/04 06:43:35;;;;;;;3.47;2.40;;;;;;;15.63;60.14;96842.75;5075023;28;20028;-32
2022/01/04 06:46:00;;;;;;;3.95;2.40;;;;;;;15.62;60.42;96852.16;5075228;28;20165;-31
2022/01/04 06:48:26;;;;;;;4.10;2.42;;;;;;;15.59;60.47;96842.88;5075377;28;20111;-32
2022/01/04 06:50:51;;;;;;;3.85;2.80;;;;;;;15.66;60.28;96850.81;5075132;28;20021;-31
2022/01/04 06:53:17;;;;;;;5.97;2.67;;;;;;;15.64;60.15;96847.00;5074753;28;21066;-31
2022/01/04 06:55:42;;;;;;;4.07;2.50;;;;;;;15.62;60.27;96846.69;5075026;28;20070;-31
2022/01/04 06:58:08;;;;;;;6.40;2.63;;;;;;;15.57;60.35;96845.31;5074757;28;20525;-31
2022/01/04 07:00:34;;;;;;;5.03;2.78;;;;;;;15.52;60.61;96851.31;5091900;28;20020;-31
2022/01/04 07:02:59;;;;;;;5.72;2.55;;;;;;;15.46;60.89;96847.63;5093170;28;20067;-32
2022/01/04 07:05:25;;;;;;;4.60;2.80;;;;;;;15.57;60.57;96847.28;5093443;28;20020;-32
2022/01/04 07:07:50;;;;;;;5.95;2.47;;;;;;;15.56;60.54;96851.22;5092956;28;20147;-31
2022/01/04 07:10:15;;;;;;;4.57;2.33;;;;;;;15.62;60.40;96852.16;5092644;28;20027;-31
2022/01/04 07:12:41;;;;;;;5.88;2.75;;;;;;;15.59;60.36;96853.03;5092872;28;20034;-31
2022/01/04 07:15:07;;;;;;;3.92;2.40;;;;;;;15.60;60.41;96851.84;5092804;28;20111;-31
2022/01/04 07:17:35;;;;;;;5.63;2.70;;;;;;;15.60;60.41;96840.91;5092789;28;20382;-31
2022/01/04 07:20:00;;;;;;;3.90;2.20;;;;;;;15.57;60.36;96852.75;5092631;28;20046;-31
2022/01/04 07:22:26;;;;;;;5.68;2.42;;;;;;;15.58;60.41;96848.81;5092714;28;20114;-32
2022/01/04 07:24:51;;;;;;;2.97;2.38;;;;;;;15.49;60.73;96841.28;5092792;28;20023;-32
2022/01/04 07:27:17;;;;;;;4.05;2.20;;;;;;;15.60;60.36;96844.41;5092721;28;20369;-33
2022/01/04 07:29:42;;;;;;;5.65;2.67;;;;;;;15.61;60.27;96848.66;5092667;28;20024;-34
2022/01/04 07:32:07;;;;;;;3.35;2.15;;;;;;;15.58;60.40;96849.53;5092444;28;20024;-34
2022/01/04 07:34:33;;;;;;;3.38;2.50;;;;;;;15.60;60.44;96843.63;5092348;28;20067;-34
2022/01/04 07:36:58;;;;;;;4.47;2.60;;;;;;;15.50;60.62;96842.81;5092407;28;20032;-33
2022/01/04 07:39:24;;;;;;;5.28;2.70;;;;;;;15.60;60.50;96854.56;5092430;28;20378;-34
2022/01/04 07:41:49;;;;;;;4.70;2.22;;;;;;;15.56;60.40;96854.72;5088233;28;20028;-33
2022/01/04 07:44:15;;;;;;;5.53;2.50;;;;;;;15.51;60.72;96857.22;5092101;28;20035;-33
2022/01/04 07:46:40;;;;;;;6.72;2.85;;;;;;;15.54;60.71;96861.81;5091948;28;20034;-34
2022/01/04 07:49:06;;;;;;;5.93;2.88;;;;;;;15.54;60.65;96859.06;5092568;28;20039;-33
2022/01/04 07:51:31;;;;;;;3.92;2.45;;;;;;;15.57;60.45;96864.44;5092071;28;20028;-33
2022/01/04 07:53:56;;;;;;;5.20;2.53;;;;;;;15.67;60.15;96866.00;5092203;28;20043;-33
2022/01/04 07:56:22;;;;;;;4.72;2.38;;;;;;;15.60;60.27;96870.97;5092200;28;20458;-33
2022/01/04 07:58:47;;;;;;;6.68;2.85;;;;;;;15.61;60.50;96872.50;5091942;28;20481;-33
2022/01/04 08:01:13;;;;;;;3.33;2.60;;;;;;;15.59;60.63;96883.13;5090724;28;20021;-33
2022/01/04 08:03:39;;;;;;;4.40;2.65;;;;;;;15.50;60.68;96874.84;5091931;28;20031;-33
2022/01/04 08:06:04;;;;;;;5.55;2.20;;;;;;;15.53;60.74;96876.69;5091900;28;20035;-33
2022/01/04 08:08:30;;;;;;;6.57;2.58;;;;;;;15.47;60.76;96881.97;5091676;28;20032;-33
2022/01/04 08:10:55;;;;;;;5.47;2.40;;;;;;;15.44;61.07;96880.91;5090215;28;20035;-33
2022/01/04 08:13:21;;;;;;;4.72;2.20;;;;;;;15.50;60.96;96872.09;5091788;28;20047;-33
2022/01/04 08:15:47;;;;;;;5.00;2.28;;;;;;;15.56;60.77;96875.81;5091348;28;20019;-33
2022/01/04 08:18:12;;;;;;;3.90;2.47;;;;;;;15.57;60.65;96874.63;5091716;28;20032;-34
2022/01/04 08:20:37;;;;;;;6.07;2.35;;;;;;;15.52;60.73;96877.91;5091584;28;20016;-34
2022/01/04 08:23:03;;;;;;;4.50;2.40;;;;;;;15.38;61.38;96866.28;5091302;28;20020;-34
2022/01/04 08:25:30;;;;;;;5.15;2.65;;;;;;;15.50;60.81;96870.13;5091406;28;20027;-33
2022/01/04 08:27:56;;;;;;;4.55;2.70;;;;;;;15.53;60.66;96868.50;5091457;28;20382;-34
2022/01/04 08:30:21;;;;;;;4.57;2.30;;;;;;;15.55;60.45;96860.63;5091339;28;20012;-33
2022/01/04 08:32:47;;;;;;;3.25;2.20;;;;;;;15.48;60.94;96860.84;5091521;28;20028;-33
2022/01/04 08:35:13;;;;;;;4.63;2.50;;;;;;;15.52;60.74;96862.25;5091163;28;20032;-33
2022/01/04 08:37:39;;;;;;;5.68;2.55;;;;;;;15.56;60.54;96862.16;5091358;28;20024;-33
2022/01/04 08:40:06;;;;;;;5.78;2.35;;;;;;;15.57;60.55;96863.69;5091589;28;20377;-34
2022/01/04 08:42:32;;;;;;;4.63;2.30;;;;;;;15.52;60.72;96856.03;5089473;28;20024;-33
2022/01/04 08:44:57;;;;;;;3.47;2.28;;;;;;;15.52;60.73;96862.25;5091494;28;20028;-33
2022/01/04 08:47:23;;;;;;;5.03;2.45;;;;;;;15.52;60.65;96864.22;5091091;28;20746;-34
2022/01/04 08:49:49;;;;;;;5.70;2.70;;;;;;;15.53;60.70;96868.50;5091277;28;20115;-33
2022/01/04 08:52:15;;;;;;;7.22;2.63;;;;;;;15.51;60.68;96874.41;5089653;28;20052;-34
2022/01/04 08:54:41;;;;;;;5.43;2.45;;;;;;;15.35;61.39;96853.50;5095840;28;20027;-34
2022/01/04 08:57:06;;;;;;;4.47;2.40;;;;;;;15.49;60.93;96867.84;5096406;28;20032;-33
2022/01/04 08:59:33;;;;;;;5.53;2.63;;;;;;;15.46;61.02;96864.03;5097693;28;20405;-33
2022/01/04 09:01:59;;;;;;;6.43;2.15;;;;;;;15.55;60.68;96860.63;5097978;28;20235;-33
2022/01/04 09:04:24;;;;;;;3.70;2.20;;;;;;;15.41;61.15;96867.38;5097940;28;20024;-33
2022/01/04 09:06:50;;;;;;;5.15;2.70;;;;;;;15.44;61.01;96861.78;5097994;28;20032;-33
2022/01/04 09:09:16;;;;;;;3.50;2.13;;;;;;;15.51;60.73;96865.44;5097952;28;20024;-33
2022/01/04 09:11:42;;;;;;;6.47;2.20;;;;;;;15.48;60.84;96863.59;5097453;28;20039;-33
2022/01/04 09:19:21;;;;;;;7.22;2.80;;;;;;;15.47;60.85;96868.28;5097672;28;20034;-34
2022/01/04 09:21:47;;;;;;;4.53;3.03;;;;;;;15.46;60.99;96874.97;5097485;28;20028;-33
2022/01/04 09:24:13;;;;;;;5.03;3.17;;;;;;;15.41;60.97;96857.19;5097452;28;20484;-33
2022/01/04 09:26:38;;;;;;;5.40;3.30;;;;;;;15.52;60.64;96864.22;5097782;28;20561;-33
2022/01/04 09:29:04;;;;;;;8.23;4.53;;;;;;;15.48;60.77;96849.91;5097840;28;20027;-33
2022/01/04 09:31:30;;;;;;;12.00;6.53;;;;;;;14.76;63.43;96853.72;5097159;28;20024;-33
2022/01/04 09:33:59;;;;;;;13.20;5.97;;;;;;;15.01;62.74;96859.06;5097140;28;20115;-33
2022/01/04 09:36:26;;;;;;;10.63;5.97;;;;;;;15.32;61.43;96854.41;5097455;28;20028;-33
2022/01/04 09:38:52;;;;;;;9.93;6.05;;;;;;;15.37;61.38;96853.81;5097715;28;20106;-33
2022/01/04 09:41:18;;;;;;;9.65;5.72;;;;;;;15.36;61.32;96849.56;5095677;28;20043;-33
2022/01/04 09:43:43;;;;;;;11.40;5.53;;;;;;;15.41;61.07;96850.97;5097534;28;20027;-33
2022/01/04 09:46:09;;;;;;;10.45;4.65;;;;;;;15.45;60.75;96851.59;5097228;28;20040;-33
2022/01/04 09:48:34;;;;;;;10.10;5.45;;;;;;;15.45;60.72;96851.59;5097162;28;20020;-33
2022/01/04 09:51:00;;;;;;;8.75;4.32;;;;;;;15.43;60.77;96854.03;5097329;28;20024;-33
2022/01/04 09:53:26;;;;;;;7.88;4.53;;;;;;;15.41;60.97;96851.72;5097477;28;20040;-33
2022/01/04 09:55:55;;;;;;;7.60;4.30;;;;;;;15.43;60.88;96841.13;5097318;28;20393;-33
2022/01/04 09:58:24;;;;;;;7.85;3.50;;;;;;;15.20;61.60;96847.06;5097175;28;20016;-33
2022/01/04 10:00:50;;;;;;;8.27;4.18;;;;;;;15.37;61.27;96833.94;5097407;28;20032;-33
2022/01/04 10:03:22;;;;;;;8.27;3.65;;;;;;;15.43;60.86;96837.63;5097342;28;20051;-33
2022/01/04 10:05:48;;;;;;;7.22;3.60;;;;;;;15.40;60.93;96839.28;5094663;28;20020;-33
2022/01/04 10:08:14;;;;;;;5.55;3.50;;;;;;;15.41;60.81;96840.78;5094231;28;20078;-32
2022/01/04 10:10:41;;;;;;;7.75;3.50;;;;;;;15.44;60.80;96839.91;5093666;28;20028;-33
2022/01/04 10:13:14;;;;;;;6.57;3.65;;;;;;;15.46;60.61;96832.00;5093924;28;20031;-33
2022/01/04 10:15:47;;;;;;;4.05;3.00;;;;;;;15.46;60.81;96826.53;5093886;28;20103;-33
2022/01/04 10:18:12;;;;;;;5.60;3.40;;;;;;;15.42;60.59;96820.47;5093636;28;20062;-34
2022/01/04 10:20:41;;;;;;;4.93;3.10;;;;;;;15.40;60.87;96809.22;5093785;28;20056;-33
2022/01/04 10:23:20;;;;;;;5.97;2.95;;;;;;;15.46;60.62;96815.59;5093741;28;20131;-33
2022/01/04 10:25:46;;;;;;;5.82;2.95;;;;;;;15.50;60.55;96811.97;5094045;28;20066;-33
2022/01/04 10:28:27;;;;;;;6.03;3.13;;;;;;;15.45;60.66;96808.59;5093718;28;20032;-33
2022/01/04 10:30:53;;;;;;;5.72;3.03;;;;;;;15.45;60.63;96810.59;5093975;28;20067;-33
2022/01/04 10:33:22;;;;;;;6.45;3.15;;;;;;;15.38;60.89;96797.19;5093539;28;20056;-33
2022/01/04 10:35:56;;;;;;;4.20;2.70;;;;;;;15.44;60.78;96801.66;5093100;28;20050;-33
2022/01/04 10:38:26;;;;;;;4.53;2.65;;;;;;;15.40;61.04;96798.28;5096527;28;20031;-33
2022/01/04 10:40:57;;;;;;;5.20;2.63;;;;;;;15.46;60.60;96787.50;5113584;28;20028;-33
2022/01/04 10:43:27;;;;;;;5.55;2.90;;;;;;;15.44;60.92;96789.94;5105217;28;20040;-33
2022/01/04 10:45:54;;;;;;;6.05;2.80;;;;;;;15.38;60.99;96786.25;5091729;28;20057;-33
2022/01/04 10:48:31;;;;;;;4.88;2.40;;;;;;;15.49;60.65;96785.84;5092691;28;20077;-33
2022/01/04 10:51:05;;;;;;;4.07;2.53;;;;;;;15.24;61.75;96786.81;5092712;28;20112;-33
2022/01/04 10:53:37;;;;;;;4.57;2.65;;;;;;;15.38;61.04;96773.34;5092962;28;20051;-33
2022/01/04 10:56:24;;;;;;;7.40;2.97;;;;;;;15.35;61.29;96785.19;5093325;28;20024;-33
2022/01/04 10:58:51;;;;;;;5.53;2.88;;;;;;;15.34;61.48;96780.16;5092330;28;20055;-33
2022/01/04 11:01:22;;;;;;;6.55;3.10;;;;;;;15.30;61.50;96774.09;5093154;28;20032;-33
2022/01/04 11:03:55;;;;;;;5.40;3.40;;;;;;;15.18;62.24;96761.28;5093115;28;20493;-33
2022/01/04 11:06:30;;;;;;;7.68;3.28;;;;;;;15.29;61.74;96767.88;5093118;28;20059;-33
2022/01/04 11:08:56;;;;;;;6.07;3.30;;;;;;;15.14;62.47;96755.94;5092934;28;20020;-33
2022/01/04 11:11:22;;;;;;;8.00;3.53;;;;;;;15.22;62.04;96756.44;5092540;28;20038;-33
2022/01/04 11:13:51;;;;;;;5.25;3.20;;;;;;;15.30;61.86;96753.00;5093064;28;20024;-33
2022/01/04 11:16:18;;;;;;;4.82;3.25;;;;;;;15.34;61.66;96752.84;5092848;28;20081;-33
2022/01/04 11:18:47;;;;;;;7.47;3.78;;;;;;;15.36;61.42;96744.94;5092965;28;20103;-33
2022/01/04 11:21:14;;;;;;;7.45;3.30;;;;;;;15.34;61.59;96747.38;5092719;28;20023;-32
2022/01/04 11:23:41;;;;;;;5.78;2.95;;;;;;;15.35;61.88;96740.69;5092505;28;20051;-33
2022/01/04 11:26:11;;;;;;;4.22;2.72;;;;;;;15.27;61.99;96734.75;5092753;28;20031;-33
2022/01/04 11:28:41;;;;;;;5.30;2.83;;;;;;;15.39;61.35;96744.81;5092521;28;20118;-33
2022/01/04 11:31:12;;;;;;;5.57;3.05;;;;;;;15.28;62.05;96730.06;5092828;28;20028;-33
2022/01/04 11:33:52;;;;;;;5.20;2.88;;;;;;;15.28;62.11;96728.09;5091083;28;20067;-33
2022/01/04 11:36:19;;;;;;;4.45;2.92;;;;;;;15.42;61.48;96724.03;5092389;28;20024;-32
2022/01/04 11:38:44;;;;;;;3.65;2.60;;;;;;;15.38;61.63;96713.25;5092613;28;20035;-33
2022/01/04 11:41:48;;;;;;;4.93;2.78;;;;;;;15.41;61.59;96708.84;5090767;28;20524;-30